createdAt,value
2022-08-25T00:01:58.368Z,22.79
2022-08-25T00:04:26.320Z,22.87
2022-08-25T00:06:58.263Z,22.81
2022-08-25T00:09:27.770Z,22.66
2022-08-25T00:11:55.114Z,22.58
2022-08-25T00:14:25.374Z,22.59
2022-08-25T00:16:52.195Z,22.55
2022-08-25T00:19:24.750Z,22.64
2022-08-25T00:21:51.809Z,22.61
2022-08-25T00:24:20.860Z,22.55
2022-08-25T00:26:51.127Z,22.51
2022-08-25T00:29:17.968Z,22.50
2022-08-25T00:31:45.584Z,22.53
2022-08-25T00:34:19.532Z,22.61
2022-08-25T00:36:47.230Z,22.70
2022-08-25T00:39:14.124Z,22.48
2022-08-25T00:41:42.775Z,22.25
2022-08-25T00:44:18.354Z,22.09
2022-08-25T00:46:51.738Z,21.89
2022-08-25T00:49:27.284Z,21.79
2022-08-25T00:51:59.026Z,21.74
2022-08-25T00:54:30.697Z,21.72
2022-08-25T00:56:59.256Z,21.73
2022-08-25T00:59:27.124Z,21.69
2022-08-25T01:01:54.739Z,21.68
2022-08-25T01:04:21.567Z,21.69
2022-08-25T01:06:48.917Z,21.64
2022-08-25T01:09:16.357Z,21.67
2022-08-25T01:11:44.852Z,21.69
2022-08-25T01:14:15.009Z,21.73
2022-08-25T01:16:43.772Z,21.91
2022-08-25T01:19:15.304Z,21.89
2022-08-25T01:21:52.764Z,21.88
2022-08-25T01:24:40.996Z,22.02
2022-08-25T01:27:09.087Z,22.04
2022-08-25T01:29:36.828Z,21.90
2022-08-25T01:32:07.022Z,21.91
2022-08-25T01:34:36.577Z,21.87
2022-08-25T01:37:04.736Z,21.92
2022-08-25T01:39:33.972Z,21.97
2022-08-25T01:42:06.318Z,22.08
2022-08-25T01:44:35.923Z,22.22
2022-08-25T01:47:03.510Z,22.12
2022-08-25T01:49:30.165Z,22.08
2022-08-25T01:52:01.866Z,22.11
2022-08-25T01:54:28.335Z,22.16
2022-08-25T01:56:55.561Z,22.22
2022-08-25T01:59:24.326Z,22.12
2022-08-25T02:01:51.831Z,21.93
2022-08-25T02:04:32.306Z,21.93
2022-08-25T02:07:00.717Z,21.92
2022-08-25T02:09:27.462Z,21.87
2022-08-25T02:11:54.172Z,21.83
2022-08-25T02:14:20.982Z,21.79
2022-08-25T02:16:50.806Z,21.80
2022-08-25T02:19:18.577Z,21.74
2022-08-25T02:21:45.153Z,21.64
2022-08-25T02:24:12.075Z,21.58
2022-08-25T02:26:38.903Z,21.47
2022-08-25T02:29:07.504Z,21.39
2022-08-25T02:31:34.186Z,21.28
2022-08-25T02:34:02.049Z,21.20
2022-08-25T02:36:29.057Z,21.23
2022-08-25T02:38:55.550Z,21.29
2022-08-25T02:41:27.749Z,21.37
2022-08-25T02:43:59.191Z,21.38
2022-08-25T02:46:25.839Z,21.31
2022-08-25T02:48:53.280Z,21.28
2022-08-25T02:51:22.464Z,21.24
2022-08-25T02:53:49.979Z,21.23
2022-08-25T02:56:18.478Z,21.31
2022-08-25T02:58:46.504Z,21.47
2022-08-25T03:01:14.370Z,21.57
2022-08-25T03:03:42.181Z,21.62
2022-08-25T03:06:13.107Z,21.63
2022-08-25T03:08:40.277Z,21.59
2022-08-25T03:11:06.862Z,21.64
2022-08-25T03:13:33.457Z,21.68
2022-08-25T03:16:00.458Z,21.63
2022-08-25T03:18:27.621Z,21.55
2022-08-25T03:20:54.967Z,21.46
2022-08-25T03:23:21.559Z,21.33
2022-08-25T03:26:06.292Z,21.27
2022-08-25T03:28:33.206Z,21.33
2022-08-25T03:31:01.293Z,21.35
2022-08-25T03:33:31.471Z,21.28
2022-08-25T03:35:58.135Z,21.26
2022-08-25T03:38:25.846Z,21.33
2022-08-25T03:40:53.175Z,21.40
2022-08-25T03:43:20.209Z,21.44
2022-08-25T03:45:47.930Z,21.47
2022-08-25T03:48:16.721Z,21.47
2022-08-25T03:50:52.227Z,21.38
2022-08-25T03:53:19.915Z,21.27
2022-08-25T03:55:47.173Z,21.04
2022-08-25T03:58:14.399Z,20.92
2022-08-25T04:00:42.169Z,20.90
2022-08-25T04:03:08.983Z,20.94
2022-08-25T04:05:35.532Z,20.93
2022-08-25T04:08:02.332Z,20.79
2022-08-25T04:10:29.624Z,20.65
2022-08-25T04:12:56.969Z,20.66
2022-08-25T04:15:28.585Z,20.65
2022-08-25T04:17:58.741Z,20.48
2022-08-25T04:20:25.458Z,20.43
2022-08-25T04:22:51.970Z,20.34
2022-08-25T04:25:18.440Z,20.27
2022-08-25T04:27:45.000Z,20.20
2022-08-25T04:30:12.131Z,20.18
2022-08-25T04:32:38.677Z,20.17
2022-08-25T04:35:05.628Z,20.12
2022-08-25T04:37:33.322Z,20.13
2022-08-25T04:39:59.981Z,20.24
2022-08-25T04:42:26.998Z,20.40
2022-08-25T04:44:54.483Z,20.53
2022-08-25T04:47:21.306Z,20.39
2022-08-25T04:49:47.856Z,20.32
2022-08-25T04:52:14.817Z,20.31
2022-08-25T04:54:42.047Z,20.37
2022-08-25T04:57:08.625Z,20.39
2022-08-25T04:59:35.181Z,20.48
2022-08-25T05:02:03.216Z,20.50
2022-08-25T05:04:31.090Z,20.60
2022-08-25T05:06:58.572Z,20.60
2022-08-25T05:09:26.584Z,20.70
2022-08-25T05:11:54.646Z,20.63
2022-08-25T05:14:25.682Z,20.66
2022-08-25T05:16:53.308Z,20.70
2022-08-25T05:19:20.013Z,20.80
2022-08-25T05:21:46.536Z,20.88
2022-08-25T05:24:13.000Z,20.95
2022-08-25T05:26:39.729Z,20.97
2022-08-25T05:29:06.389Z,21.12
2022-08-25T05:31:33.414Z,21.13
2022-08-25T05:34:00.459Z,21.08
2022-08-25T05:36:29.486Z,21.12
2022-08-25T05:38:55.972Z,21.07
2022-08-25T05:41:27.584Z,20.97
2022-08-25T05:43:54.648Z,20.97
2022-08-25T05:46:21.927Z,21.09
2022-08-25T05:48:49.304Z,21.21
2022-08-25T05:51:16.506Z,21.26
2022-08-25T05:53:45.875Z,21.40
2022-08-25T05:56:13.970Z,21.57
2022-08-25T05:58:41.923Z,21.54
2022-08-25T06:01:28.201Z,21.44
2022-08-25T06:03:55.058Z,21.46
2022-08-25T06:06:23.395Z,21.50
2022-08-25T06:08:50.527Z,21.50
2022-08-25T06:11:17.292Z,21.53
2022-08-25T06:13:43.871Z,21.51
2022-08-25T06:16:10.455Z,21.63
2022-08-25T06:18:37.135Z,21.80
2022-08-25T06:21:12.835Z,21.99
2022-08-25T06:23:40.020Z,22.41
2022-08-25T06:26:07.432Z,22.55
2022-08-25T06:28:33.956Z,22.67
2022-08-25T06:31:01.812Z,22.80
2022-08-25T06:33:28.378Z,22.87
2022-08-25T06:35:57.118Z,23.12
2022-08-25T06:38:24.320Z,23.15
2022-08-25T06:40:54.353Z,23.06
2022-08-25T06:43:21.819Z,23.21
2022-08-25T06:45:48.725Z,23.27
2022-08-25T06:48:15.901Z,23.30
2022-08-25T06:50:43.249Z,23.02
2022-08-25T06:53:10.107Z,23.24
2022-08-25T06:55:36.864Z,23.49
2022-08-25T06:58:04.956Z,23.33
2022-08-25T07:00:32.801Z,23.35
2022-08-25T07:03:01.382Z,23.24
2022-08-25T07:05:42.625Z,23.30
2022-08-25T07:08:11.744Z,23.43
2022-08-25T07:10:38.409Z,23.35
2022-08-25T07:13:04.852Z,23.51
2022-08-25T07:15:31.338Z,23.59
2022-08-25T07:17:58.146Z,23.40
2022-08-25T07:22:56.112Z,23.84
2022-08-25T07:25:24.214Z,23.83
2022-08-25T07:27:51.016Z,23.87
2022-08-25T07:30:18.700Z,23.99
2022-08-25T07:32:45.477Z,23.99
2022-08-25T07:35:15.353Z,23.92
2022-08-25T07:37:55.685Z,23.89
2022-08-25T07:40:29.880Z,24.03
2022-08-25T07:42:59.808Z,24.17
2022-08-25T07:45:30.616Z,24.19
2022-08-25T07:48:04.636Z,24.19
2022-08-25T07:50:31.832Z,24.26
2022-08-25T07:52:58.729Z,24.28
2022-08-25T07:55:27.241Z,24.27
2022-08-25T07:57:57.100Z,24.41
2022-08-25T08:00:27.720Z,24.49
2022-08-25T08:02:54.659Z,24.47
2022-08-25T08:05:21.316Z,24.58
2022-08-25T08:07:50.856Z,24.63
2022-08-25T08:13:07.112Z,24.81
2022-08-25T08:15:34.960Z,24.76
2022-08-25T08:18:01.992Z,24.81
2022-08-25T08:20:32.074Z,24.94
2022-08-25T08:23:09.441Z,24.95
2022-08-25T08:25:36.012Z,25.02
2022-08-25T08:28:02.958Z,25.08
2022-08-25T08:30:29.525Z,25.12
2022-08-25T08:33:12.820Z,25.18
2022-08-25T08:35:43.102Z,25.22
2022-08-25T08:38:16.034Z,25.39
2022-08-25T08:41:16.987Z,25.49
2022-08-25T08:43:59.635Z,25.55
2022-08-25T08:46:38.273Z,25.69
2022-08-25T08:49:36.174Z,25.87
2022-08-25T08:52:04.366Z,25.98
2022-08-25T08:54:36.975Z,26.04
2022-08-25T08:57:17.637Z,26.17
2022-08-25T08:59:56.759Z,26.32
2022-08-25T09:02:51.382Z,26.40
2022-08-25T09:05:21.112Z,26.48
2022-08-25T09:08:04.969Z,26.75
2022-08-25T09:10:59.787Z,26.83
2022-08-25T09:13:44.730Z,26.76
2022-08-25T09:17:06.255Z,27.06
2022-08-25T09:19:54.534Z,27.23
2022-08-25T09:22:47.840Z,27.40
2022-08-25T09:25:34.590Z,27.56
2022-08-25T09:28:28.530Z,27.88
2022-08-25T09:31:04.395Z,27.95
2022-08-25T09:33:35.575Z,28.07
2022-08-25T09:36:06.412Z,28.24
2022-08-25T09:38:35.684Z,28.44
2022-08-25T09:41:03.019Z,28.32
2022-08-25T09:43:35.650Z,28.29
2022-08-25T09:46:20.730Z,28.34
2022-08-25T09:48:55.718Z,28.44
2022-08-25T09:51:37.998Z,28.42
2022-08-25T09:54:13.859Z,28.54
2022-08-25T09:56:57.415Z,28.65
2022-08-25T09:59:34.973Z,28.66
2022-08-25T10:02:22.022Z,28.83
2022-08-25T10:04:48.690Z,28.91
2022-08-25T10:07:26.755Z,28.87
2022-08-25T10:09:56.923Z,28.95
2022-08-25T10:12:33.492Z,29.01
2022-08-25T10:15:00.015Z,29.02
2022-08-25T10:17:33.662Z,29.13
2022-08-25T10:20:20.323Z,29.29
2022-08-25T10:22:50.458Z,29.34
2022-08-25T10:25:26.833Z,29.57
2022-08-25T10:28:12.471Z,29.64
2022-08-25T10:30:59.989Z,29.60
2022-08-25T10:33:45.562Z,29.57
2022-08-25T10:36:23.048Z,29.64
2022-08-25T10:38:56.135Z,29.86
2022-08-25T10:41:28.537Z,29.71
2022-08-25T10:44:51.544Z,29.69
2022-08-25T10:47:55.185Z,29.73
2022-08-25T10:50:31.116Z,29.64
2022-08-25T10:53:30.029Z,29.79
2022-08-25T10:56:21.318Z,29.91
2022-08-25T10:58:54.468Z,29.95
2022-08-25T11:01:43.739Z,29.93
2022-08-25T11:04:26.241Z,29.92
2022-08-25T11:07:09.395Z,30.18
2022-08-25T11:09:42.697Z,30.06
2022-08-25T11:12:14.945Z,30.08
2022-08-25T11:14:57.076Z,30.17
2022-08-25T11:17:46.689Z,30.05
2022-08-25T11:20:26.833Z,30.10
2022-08-25T11:23:24.191Z,30.18
2022-08-25T11:26:00.419Z,30.36
2022-08-25T11:28:31.356Z,30.27
2022-08-25T11:31:00.634Z,29.93
2022-08-25T11:33:30.430Z,30.03
2022-08-25T11:36:05.933Z,30.21
2022-08-25T11:38:52.040Z,30.18
2022-08-25T11:41:47.581Z,30.08
2022-08-25T11:44:38.478Z,30.22
2022-08-25T11:47:29.321Z,30.34
2022-08-25T11:50:21.903Z,30.42
2022-08-25T11:53:50.862Z,30.35
2022-08-25T11:56:36.939Z,30.59
2022-08-25T11:59:07.565Z,30.63
2022-08-25T12:01:40.261Z,30.33
2022-08-25T12:04:31.059Z,30.52
2022-08-25T12:07:06.286Z,30.66
2022-08-25T12:09:54.546Z,30.72
2022-08-25T12:12:43.932Z,30.64
2022-08-25T12:15:32.186Z,30.71
2022-08-25T12:18:23.072Z,30.96
2022-08-25T12:20:56.249Z,30.89
2022-08-25T12:23:37.716Z,30.77
2022-08-25T12:26:19.020Z,30.71
2022-08-25T12:28:57.078Z,30.68
2022-08-25T12:32:06.980Z,30.59
2022-08-25T12:34:38.518Z,30.44
2022-08-25T12:37:13.253Z,30.51
2022-08-25T12:39:44.840Z,30.46
2022-08-25T12:42:28.385Z,30.55
2022-08-25T12:45:19.645Z,30.82
2022-08-25T12:47:48.924Z,30.95
2022-08-25T12:50:41.838Z,30.78
2022-08-25T12:53:12.334Z,30.85
2022-08-25T12:55:46.534Z,30.92
2022-08-25T12:58:13.093Z,30.98
2022-08-25T13:00:52.446Z,30.97
2022-08-25T13:04:04.344Z,30.77
2022-08-25T13:06:38.616Z,30.84
2022-08-25T13:09:24.382Z,30.90
2022-08-25T13:12:08.151Z,31.01
2022-08-25T13:14:40.783Z,31.09
2022-08-25T13:17:09.586Z,31.10
2022-08-25T13:19:37.306Z,31.17
2022-08-25T13:22:16.579Z,31.11
2022-08-25T13:24:47.624Z,31.12
2022-08-25T13:27:26.570Z,31.03
2022-08-25T13:29:58.010Z,31.15
2022-08-25T13:32:35.610Z,31.09
2022-08-25T13:35:20.056Z,31.13
2022-08-25T13:37:47.507Z,31.00
2022-08-25T13:40:27.877Z,31.01
2022-08-25T13:43:06.612Z,30.92
2022-08-25T13:45:40.935Z,30.64
2022-08-25T13:48:20.889Z,30.75
2022-08-25T13:50:52.731Z,30.78
2022-08-25T13:53:25.566Z,30.92
2022-08-25T13:55:57.581Z,30.92
2022-08-25T13:58:39.240Z,30.91
2022-08-25T14:01:48.802Z,30.89
2022-08-25T14:04:29.528Z,30.92
2022-08-25T14:07:13.262Z,30.90
2022-08-25T14:09:49.777Z,30.97
2022-08-25T14:12:39.857Z,31.02
2022-08-25T14:15:09.285Z,30.92
2022-08-25T14:17:40.235Z,30.87
2022-08-25T14:20:18.320Z,30.71
2022-08-25T14:22:44.802Z,30.72
2022-08-25T14:25:11.381Z,30.75
2022-08-25T14:27:56.929Z,30.77
2022-08-25T14:30:29.412Z,30.64
2022-08-25T14:32:56.957Z,30.64
2022-08-25T14:35:23.485Z,30.55
2022-08-25T14:37:50.214Z,30.64
2022-08-25T14:40:19.963Z,30.68
2022-08-25T14:42:47.762Z,30.77
2022-08-25T14:45:15.854Z,30.74
2022-08-25T14:47:46.133Z,30.60
2022-08-25T14:50:20.018Z,30.69
2022-08-25T14:52:48.253Z,30.68
2022-08-25T14:55:31.813Z,30.75
2022-08-25T14:57:59.317Z,30.74
2022-08-25T15:00:26.064Z,30.79
2022-08-25T15:02:52.966Z,30.82
2022-08-25T15:05:29.125Z,30.75
2022-08-25T15:08:16.432Z,30.71
2022-08-25T15:10:43.282Z,30.68
2022-08-25T15:13:10.303Z,30.75
2022-08-25T15:15:52.163Z,30.75
2022-08-25T15:18:20.712Z,30.70
2022-08-25T15:20:47.354Z,30.71
2022-08-25T15:23:19.340Z,30.74
2022-08-25T15:25:48.956Z,30.69
2022-08-25T15:28:22.341Z,30.67
2022-08-25T15:30:49.798Z,30.54
2022-08-25T15:33:17.323Z,30.47
2022-08-25T15:35:44.263Z,30.46
2022-08-25T15:38:12.288Z,30.59
2022-08-25T15:40:39.745Z,30.49
2022-08-25T15:43:07.022Z,30.46
2022-08-25T15:45:35.964Z,30.45
2022-08-25T15:48:03.479Z,30.46
2022-08-25T15:50:30.090Z,30.53
2022-08-25T15:52:56.654Z,30.55
2022-08-25T15:55:23.437Z,30.55
2022-08-25T15:57:50.300Z,30.57
2022-08-25T16:00:18.028Z,30.56
2022-08-25T16:02:45.609Z,30.48
2022-08-25T16:05:13.687Z,30.42
2022-08-25T16:07:42.904Z,30.48
2022-08-25T16:10:13.059Z,30.42
2022-08-25T16:12:40.043Z,30.37
2022-08-25T16:15:09.804Z,30.40
2022-08-25T16:17:38.613Z,30.42
2022-08-25T16:20:07.889Z,30.37
2022-08-25T16:22:40.246Z,30.29
2022-08-25T16:25:07.273Z,30.31
2022-08-25T16:27:38.617Z,30.36
2022-08-25T16:30:07.141Z,30.40
2022-08-25T16:32:34.687Z,30.42
2022-08-25T16:35:02.997Z,30.38
2022-08-25T16:37:29.778Z,30.38
2022-08-25T16:39:57.289Z,30.36
2022-08-25T16:42:24.196Z,30.38
2022-08-25T16:44:53.948Z,30.34
2022-08-25T16:47:25.119Z,30.29
2022-08-25T16:49:53.602Z,30.31
2022-08-25T16:52:38.741Z,30.37
2022-08-25T16:55:13.760Z,30.37
2022-08-25T16:57:45.289Z,30.33
2022-08-25T17:00:21.877Z,30.34
2022-08-25T17:02:49.271Z,30.33
2022-08-25T17:05:16.501Z,30.31
2022-08-25T17:08:04.728Z,30.29
2022-08-25T17:10:34.809Z,30.22
2022-08-25T17:13:01.257Z,30.14
2022-08-25T17:15:28.090Z,30.12
2022-08-25T17:17:54.536Z,30.13
2022-08-25T17:20:21.082Z,30.10
2022-08-25T17:22:48.607Z,30.05
2022-08-25T17:25:15.180Z,29.97
2022-08-25T17:27:41.632Z,29.89
2022-08-25T17:30:09.850Z,29.83
2022-08-25T17:32:36.371Z,29.77
2022-08-25T17:35:04.401Z,29.73
2022-08-25T17:37:32.534Z,29.69
2022-08-25T17:40:03.149Z,29.65
2022-08-25T17:42:31.565Z,29.61
2022-08-25T17:44:58.344Z,29.55
2022-08-25T17:47:26.866Z,29.48
2022-08-25T17:49:53.983Z,29.42
2022-08-25T17:52:24.996Z,29.38
2022-08-25T17:54:52.617Z,29.32
2022-08-25T17:57:19.765Z,29.25
2022-08-25T17:59:47.817Z,29.17
2022-08-25T18:02:14.328Z,29.11
2022-08-25T18:04:41.381Z,29.03
2022-08-25T18:07:07.906Z,28.96
2022-08-25T18:09:34.444Z,28.86
2022-08-25T18:12:01.003Z,28.78
2022-08-25T18:14:27.570Z,28.69
2022-08-25T18:16:54.110Z,28.61
2022-08-25T18:19:21.008Z,28.55
2022-08-25T18:21:47.789Z,28.56
2022-08-25T18:24:14.396Z,28.55
2022-08-25T18:26:41.653Z,28.50
2022-08-25T18:29:12.069Z,28.40
2022-08-25T18:31:40.903Z,27.95
2022-08-25T18:34:10.937Z,27.62
2022-08-25T18:36:39.107Z,27.41
2022-08-25T18:39:25.060Z,27.18
2022-08-25T18:41:51.703Z,26.96
2022-08-25T18:44:18.236Z,26.86
2022-08-25T18:46:45.601Z,26.79
2022-08-25T18:49:15.817Z,26.78
2022-08-25T18:51:44.336Z,26.74
2022-08-25T18:54:22.376Z,26.74
2022-08-25T18:56:50.054Z,26.68
2022-08-25T18:59:16.552Z,26.62
2022-08-25T19:01:44.542Z,26.53
2022-08-25T19:04:13.481Z,26.50
2022-08-25T19:06:39.937Z,26.45
2022-08-25T19:09:10.934Z,26.40
2022-08-25T19:11:38.254Z,26.43
2022-08-25T19:14:12.075Z,26.43
2022-08-25T19:16:41.095Z,26.39
2022-08-25T19:19:13.167Z,26.39
2022-08-25T19:21:42.865Z,26.38
2022-08-25T19:24:11.884Z,26.44
2022-08-25T19:26:39.351Z,26.43
2022-08-25T19:29:09.473Z,26.43
2022-08-25T19:31:37.363Z,26.39
2022-08-25T19:34:07.554Z,26.32
2022-08-25T19:36:34.238Z,26.36
2022-08-25T19:39:01.644Z,26.40
2022-08-25T19:41:31.183Z,26.41
2022-08-25T19:43:58.227Z,26.40
2022-08-25T19:46:33.030Z,26.41
2022-08-25T19:49:09.096Z,26.40
2022-08-25T19:51:43.998Z,26.41
2022-08-25T19:54:15.653Z,26.40
2022-08-25T19:56:53.860Z,26.39
2022-08-25T19:59:40.532Z,26.39
2022-08-25T20:02:15.037Z,26.36
2022-08-25T20:04:42.388Z,26.32
2022-08-25T20:07:08.892Z,26.28
2022-08-25T20:09:40.946Z,26.30
2022-08-25T20:12:10.243Z,26.32
2022-08-25T20:14:37.156Z,26.35
2022-08-25T20:17:23.275Z,26.37
2022-08-25T20:19:52.454Z,26.39
2022-08-25T20:22:20.680Z,26.42
2022-08-25T20:24:57.688Z,26.39
2022-08-25T20:27:38.930Z,26.34
2022-08-25T20:30:10.064Z,26.35
2022-08-25T20:32:36.806Z,26.36
2022-08-25T20:35:06.302Z,26.35
2022-08-25T20:37:36.237Z,26.37
2022-08-25T20:40:04.774Z,26.35
2022-08-25T20:42:31.346Z,26.37
2022-08-25T20:44:57.898Z,26.34
2022-08-25T20:47:24.939Z,26.35
2022-08-25T20:49:51.673Z,26.34
2022-08-25T20:52:19.647Z,26.33
2022-08-25T20:54:50.407Z,26.26
2022-08-25T20:57:24.472Z,26.25
2022-08-25T20:59:53.087Z,26.24
2022-08-25T21:02:19.846Z,26.22
2022-08-25T21:04:49.896Z,26.22
2022-08-25T21:07:17.349Z,26.22
2022-08-25T21:09:43.997Z,26.21
2022-08-25T21:12:10.545Z,26.18
2022-08-25T21:14:38.944Z,26.19
2022-08-25T21:17:05.578Z,26.15
2022-08-25T21:19:33.464Z,26.11
2022-08-25T21:22:00.340Z,26.14
2022-08-25T21:24:27.890Z,26.11
2022-08-25T21:26:56.635Z,26.07
2022-08-25T21:29:25.956Z,26.08
2022-08-25T21:31:56.462Z,26.05
2022-08-25T21:34:23.097Z,26.11
2022-08-25T21:36:49.625Z,26.12
2022-08-25T21:39:16.222Z,26.13
2022-08-25T21:41:45.160Z,26.18
2022-08-25T21:44:12.825Z,26.19
2022-08-25T21:46:41.250Z,26.22
2022-08-25T21:49:08.543Z,26.25
2022-08-25T21:51:42.455Z,26.22
2022-08-25T21:54:15.809Z,26.21
2022-08-25T21:56:55.431Z,26.22
2022-08-25T21:59:26.821Z,26.18
2022-08-25T22:02:01.640Z,26.10
2022-08-25T22:04:29.010Z,26.11
2022-08-25T22:06:55.928Z,26.07
2022-08-25T22:09:24.948Z,26.07
2022-08-25T22:11:53.198Z,26.03
2022-08-25T22:14:23.363Z,26.06
2022-08-25T22:16:51.933Z,26.00
2022-08-25T22:19:18.745Z,25.91
2022-08-25T22:21:45.289Z,25.85
2022-08-25T22:24:11.920Z,25.83
2022-08-25T22:26:39.181Z,25.84
2022-08-25T22:29:06.559Z,25.85
2022-08-25T22:31:33.532Z,25.79
2022-08-25T22:34:00.756Z,25.69
2022-08-25T22:36:34.967Z,25.61
2022-08-25T22:39:02.741Z,25.47
2022-08-25T22:41:30.114Z,25.44
2022-08-25T22:43:57.632Z,25.37
2022-08-25T22:46:26.476Z,25.33
2022-08-25T22:48:55.589Z,25.29
2022-08-25T22:51:25.223Z,25.05
2022-08-25T22:53:52.315Z,24.87
2022-08-25T22:56:29.631Z,24.82
2022-08-25T22:59:03.108Z,24.78
2022-08-25T23:01:30.096Z,24.88
2022-08-25T23:03:56.953Z,24.96
2022-08-25T23:06:25.215Z,24.95
2022-08-25T23:08:54.101Z,24.98
2022-08-25T23:11:21.941Z,25.04
2022-08-25T23:13:48.912Z,24.95
2022-08-25T23:16:15.844Z,24.82
2022-08-25T23:18:44.830Z,24.68
2022-08-25T23:21:35.281Z,24.58
2022-08-25T23:24:07.660Z,24.53
2022-08-25T23:26:34.722Z,24.63
2022-08-25T23:29:01.200Z,24.75
2022-08-25T23:31:30.031Z,24.72
2022-08-25T23:33:58.028Z,24.65
2022-08-25T23:36:25.159Z,24.49
2022-08-25T23:38:52.088Z,24.36
2022-08-25T23:41:23.175Z,24.42
2022-08-25T23:43:50.602Z,24.28
2022-08-25T23:46:20.375Z,24.33
2022-08-25T23:48:47.887Z,24.32
2022-08-25T23:51:27.009Z,24.36
2022-08-25T23:53:55.500Z,24.24
2022-08-25T23:56:23.278Z,23.96
2022-08-25T23:58:51.212Z,23.93
